createdAt,value
2019-01-21T00:02:04.426Z,68.17
2019-01-21T00:04:44.190Z,57.35
2019-01-21T00:07:24.444Z,58.02
2019-01-21T00:10:04.639Z,55.92
2019-01-21T00:12:44.771Z,63.13
2019-01-21T00:15:24.801Z,57.58
2019-01-21T00:18:04.764Z,62.45
2019-01-21T00:20:44.959Z,65.55
2019-01-21T00:23:25.228Z,64.58
2019-01-21T00:26:05.232Z,67.58
2019-01-21T00:28:45.181Z,64.75
2019-01-21T00:31:25.263Z,68.25
2019-01-21T00:34:05.278Z,64.27
2019-01-21T00:36:45.231Z,55.67
2019-01-21T00:39:25.353Z,69.35
2019-01-21T00:42:05.328Z,59.33
2019-01-21T00:44:45.451Z,62.55
2019-01-21T00:47:29.881Z,57.35
2019-01-21T00:50:07.795Z,57.70
2019-01-21T00:52:47.592Z,60.95
2019-01-21T00:55:27.647Z,55.58
2019-01-21T00:58:07.541Z,57.15
2019-01-21T01:00:47.712Z,58.20
2019-01-21T01:03:27.768Z,62.67
2019-01-21T01:06:07.741Z,59.13
2019-01-21T01:08:47.624Z,58.35
2019-01-21T01:11:27.664Z,56.70
2019-01-21T01:14:07.574Z,51.20
2019-01-21T01:16:47.699Z,63.23
2019-01-21T01:19:27.876Z,54.45
2019-01-21T01:22:07.985Z,53.92
2019-01-21T01:24:48.164Z,67.82
2019-01-21T01:27:28.142Z,59.25
2019-01-21T01:30:08.260Z,54.70
2019-01-21T01:32:48.301Z,58.55
2019-01-21T01:35:28.261Z,57.05
2019-01-21T01:38:08.429Z,60.30
2019-01-21T01:40:48.175Z,55.15
2019-01-21T01:43:28.156Z,54.67
2019-01-21T01:46:08.076Z,54.90
2019-01-21T01:48:48.093Z,58.92
2019-01-21T01:51:28.156Z,57.03
2019-01-21T01:54:08.060Z,55.10
2019-01-21T01:56:47.929Z,47.73
2019-01-21T01:59:27.824Z,53.08
2019-01-21T02:02:07.576Z,54.40
2019-01-21T02:04:47.657Z,51.90
2019-01-21T02:07:27.508Z,51.15
2019-01-21T02:10:07.561Z,58.45
2019-01-21T02:12:47.540Z,54.77
2019-01-21T02:15:27.572Z,56.73
2019-01-21T02:18:07.316Z,60.20
2019-01-21T02:20:47.433Z,56.10
2019-01-21T02:23:27.405Z,55.88
2019-01-21T02:26:07.843Z,64.72
2019-01-21T02:28:47.901Z,56.15
2019-01-21T02:31:27.986Z,56.35
2019-01-21T02:34:07.766Z,57.00
2019-01-21T02:36:47.885Z,54.88
2019-01-21T02:39:27.949Z,55.85
2019-01-21T02:42:08.145Z,47.33
2019-01-21T02:44:48.212Z,61.75
2019-01-21T02:47:28.189Z,58.87
2019-01-21T02:50:07.982Z,58.87
2019-01-21T02:52:48.108Z,57.75
2019-01-21T02:55:28.131Z,55.50
2019-01-21T02:58:08.178Z,56.85
2019-01-21T03:00:48.037Z,52.55
2019-01-21T03:03:28.317Z,59.45
2019-01-21T03:06:08.400Z,65.83
2019-01-21T03:08:48.605Z,56.05
2019-01-21T03:11:28.488Z,55.67
2019-01-21T03:14:08.601Z,56.18
2019-01-21T03:16:48.728Z,52.00
2019-01-21T03:19:28.921Z,53.55
2019-01-21T03:22:08.850Z,55.83
2019-01-21T03:24:48.853Z,49.45
2019-01-21T03:27:28.979Z,50.17
2019-01-21T03:30:08.995Z,52.98
2019-01-21T03:32:49.079Z,53.92
2019-01-21T03:35:28.932Z,59.77
2019-01-21T03:38:09.012Z,55.15
2019-01-21T03:40:48.889Z,58.20
2019-01-21T03:43:28.875Z,55.75
2019-01-21T03:46:09.089Z,65.17
2019-01-21T03:48:49.322Z,59.33
2019-01-21T03:51:29.309Z,55.83
2019-01-21T03:54:09.377Z,55.67
2019-01-21T03:56:49.593Z,49.70
2019-01-21T03:59:29.748Z,57.58
2019-01-21T04:02:10.137Z,62.70
2019-01-21T04:04:50.195Z,58.73
2019-01-21T04:07:30.439Z,54.35
2019-01-21T04:10:10.370Z,56.20
2019-01-21T04:12:50.416Z,52.03
2019-01-21T04:15:30.617Z,49.58
2019-01-21T04:18:10.592Z,59.60
2019-01-21T04:20:50.496Z,54.48
2019-01-21T04:23:30.399Z,54.70
2019-01-21T04:26:10.373Z,53.87
2019-01-21T04:28:50.558Z,57.70
2019-01-21T04:31:30.302Z,52.43
2019-01-21T04:34:10.172Z,52.65
2019-01-21T04:36:50.261Z,54.53
2019-01-21T04:39:30.346Z,54.83
2019-01-21T04:42:10.280Z,59.63
2019-01-21T04:44:50.338Z,61.53
2019-01-21T04:47:30.494Z,68.00
2019-01-21T04:50:10.552Z,61.18
2019-01-21T04:52:50.671Z,87.50
2019-01-21T04:55:30.698Z,56.35
2019-01-21T04:58:10.784Z,47.73
2019-01-21T05:00:50.768Z,50.10
2019-01-21T05:03:30.845Z,45.33
2019-01-21T05:06:10.974Z,48.25
2019-01-21T05:08:51.170Z,49.55
2019-01-21T05:11:30.826Z,53.02
2019-01-21T05:14:10.845Z,47.50
2019-01-21T05:16:50.830Z,49.03
2019-01-21T05:19:30.848Z,49.53
2019-01-21T05:22:10.919Z,47.75
2019-01-21T05:24:50.926Z,47.62
2019-01-21T05:27:31.081Z,47.62
2019-01-21T05:30:10.989Z,47.15
2019-01-21T05:32:51.034Z,45.75
2019-01-21T05:35:31.036Z,41.95
2019-01-21T05:38:11.396Z,48.68
2019-01-21T05:40:51.389Z,45.05
2019-01-21T05:43:31.589Z,53.73
2019-01-21T05:46:11.644Z,46.68
2019-01-21T05:48:51.612Z,44.77
2019-01-21T05:51:31.430Z,48.73
2019-01-21T05:54:11.580Z,51.23
2019-01-21T05:56:51.429Z,43.98
2019-01-21T05:59:31.498Z,45.88
2019-01-21T06:02:11.574Z,45.23
2019-01-21T06:04:51.738Z,39.78
2019-01-21T06:07:31.658Z,51.53
2019-01-21T06:10:11.769Z,47.75
2019-01-21T06:12:51.656Z,46.10
2019-01-21T06:15:31.692Z,48.58
2019-01-21T06:18:11.693Z,46.85
2019-01-21T06:20:51.854Z,44.83
2019-01-21T06:23:32.049Z,47.67
2019-01-21T06:26:12.222Z,49.10
2019-01-21T06:28:52.129Z,49.53
2019-01-21T06:31:32.102Z,48.83
2019-01-21T06:34:12.135Z,51.55
2019-01-21T06:36:52.252Z,49.15
2019-01-21T06:39:32.187Z,49.08
2019-01-21T06:42:12.360Z,46.60
2019-01-21T06:44:52.390Z,44.70
2019-01-21T06:47:32.255Z,45.78
2019-01-21T06:50:12.198Z,43.85
2019-01-21T06:52:52.417Z,42.60
2019-01-21T06:55:32.272Z,37.73
2019-01-21T06:58:12.286Z,49.65
2019-01-21T07:00:52.403Z,44.30
2019-01-21T07:03:32.180Z,45.63
2019-01-21T07:06:11.984Z,45.78
2019-01-21T07:08:52.118Z,48.13
2019-01-21T07:11:32.164Z,40.15
2019-01-21T07:14:12.504Z,44.67
2019-01-21T07:16:52.658Z,43.28
2019-01-21T07:19:32.634Z,46.88
2019-01-21T07:22:12.769Z,43.60
2019-01-21T07:24:52.914Z,38.45
2019-01-21T07:27:32.936Z,46.02
2019-01-21T07:30:12.854Z,45.80
2019-01-21T07:32:52.810Z,45.00
2019-01-21T07:35:32.658Z,41.23
2019-01-21T07:38:12.716Z,43.68
2019-01-21T07:40:52.768Z,46.42
2019-01-21T07:43:32.833Z,51.58
2019-01-21T07:46:12.767Z,43.33
2019-01-21T07:48:52.717Z,50.38
2019-01-21T07:51:32.567Z,45.90
2019-01-21T07:54:12.684Z,48.68
2019-01-21T07:56:52.714Z,52.62
2019-01-21T07:59:32.873Z,48.17
2019-01-21T08:02:12.969Z,48.33
2019-01-21T08:04:52.773Z,54.00
2019-01-21T08:07:32.688Z,49.35
2019-01-21T08:10:12.956Z,50.90
2019-01-21T08:12:52.956Z,45.88
2019-01-21T08:15:33.029Z,45.17
2019-01-21T08:18:13.016Z,48.52
2019-01-21T08:20:53.372Z,46.83
2019-01-21T08:23:33.255Z,48.98
2019-01-21T08:26:13.248Z,47.70
2019-01-21T08:28:53.281Z,44.67
2019-01-21T08:31:33.614Z,46.37
2019-01-21T08:34:13.673Z,44.05
2019-01-21T08:36:53.562Z,46.65
2019-01-21T08:39:33.729Z,49.13
2019-01-21T08:42:13.682Z,52.13
2019-01-21T08:44:53.680Z,52.53
2019-01-21T08:47:33.981Z,46.48
2019-01-21T08:50:13.821Z,47.90
2019-01-21T08:52:53.937Z,43.95
2019-01-21T08:55:34.058Z,48.10
2019-01-21T08:58:14.121Z,45.28
2019-01-21T09:00:53.893Z,54.50
2019-01-21T09:03:33.950Z,46.33
2019-01-21T09:06:13.998Z,47.08
2019-01-21T09:08:54.221Z,52.13
2019-01-21T09:11:34.113Z,46.02
2019-01-21T09:14:14.177Z,47.75
2019-01-21T09:16:54.122Z,44.70
2019-01-21T09:19:37.335Z,41.70
2019-01-21T09:22:16.394Z,44.23
2019-01-21T09:24:56.257Z,45.58
2019-01-21T09:27:36.192Z,44.98
2019-01-21T09:30:16.277Z,44.40
2019-01-21T09:32:56.226Z,43.28
2019-01-21T09:35:36.237Z,41.45
2019-01-21T09:38:16.183Z,48.30
2019-01-21T09:40:56.118Z,41.53
2019-01-21T09:43:36.134Z,48.92
2019-01-21T09:46:16.119Z,40.33
2019-01-21T09:48:56.396Z,42.85
2019-01-21T09:51:36.264Z,43.30
2019-01-21T09:54:16.462Z,38.85
2019-01-21T09:56:56.435Z,45.88
2019-01-21T09:59:36.414Z,39.67
2019-01-21T10:02:16.426Z,40.73
2019-01-21T10:04:56.524Z,40.95
2019-01-21T10:07:36.474Z,39.13
2019-01-21T10:10:16.589Z,42.03
2019-01-21T10:12:56.458Z,40.67
2019-01-21T10:15:36.597Z,40.05
2019-01-21T10:18:16.750Z,37.83
2019-01-21T10:20:56.799Z,39.58
2019-01-21T10:23:36.638Z,40.52
2019-01-21T10:26:16.898Z,38.20
2019-01-21T10:28:56.833Z,39.92
2019-01-21T10:31:37.029Z,36.42
2019-01-21T10:34:17.152Z,35.85
2019-01-21T10:36:57.329Z,40.20
2019-01-21T10:39:37.192Z,39.15
2019-01-21T10:42:17.212Z,38.80
2019-01-21T10:44:57.109Z,41.05
2019-01-21T10:47:37.187Z,36.93
2019-01-21T10:50:17.488Z,35.45
2019-01-21T10:52:57.319Z,36.35
2019-01-21T10:55:37.545Z,35.45
2019-01-21T10:58:17.558Z,40.00
2019-01-21T11:00:57.567Z,36.00
2019-01-21T11:03:37.366Z,35.73
2019-01-21T11:06:17.392Z,37.17
2019-01-21T11:08:57.205Z,38.45
2019-01-21T11:11:37.151Z,36.68
2019-01-21T11:14:17.252Z,35.85
2019-01-21T11:16:57.127Z,36.40
2019-01-21T11:19:37.148Z,39.13
2019-01-21T11:22:17.133Z,32.28
2019-01-21T11:24:57.058Z,34.58
2019-01-21T11:27:36.845Z,35.70
2019-01-21T11:30:17.093Z,31.07
2019-01-21T11:32:57.167Z,34.98
2019-01-21T11:35:37.149Z,33.10
2019-01-21T11:38:17.256Z,32.30
2019-01-21T11:40:57.201Z,29.02
2019-01-21T11:43:37.355Z,34.33
2019-01-21T11:46:17.439Z,31.42
2019-01-21T11:48:57.373Z,30.43
2019-01-21T11:51:37.545Z,33.18
2019-01-21T11:54:17.690Z,34.48
2019-01-21T11:56:58.164Z,34.95
2019-01-21T11:59:37.825Z,31.57
2019-01-21T12:02:17.862Z,32.28
2019-01-21T12:04:58.069Z,30.62
2019-01-21T12:07:38.032Z,32.38
2019-01-21T12:10:17.950Z,30.85
2019-01-21T12:12:58.036Z,29.20
2019-01-21T12:15:38.068Z,35.05
2019-01-21T12:18:18.241Z,30.37
2019-01-21T12:20:58.013Z,33.60
2019-01-21T12:23:38.109Z,34.63
2019-01-21T12:26:18.164Z,31.15
2019-01-21T12:28:58.330Z,27.85
2019-01-21T12:31:38.282Z,32.67
2019-01-21T12:34:18.442Z,29.48
2019-01-21T12:36:58.490Z,29.57
2019-01-21T12:39:38.351Z,29.60
2019-01-21T12:42:18.530Z,31.48
2019-01-21T12:44:58.355Z,29.27
2019-01-21T12:47:38.221Z,30.80
2019-01-21T12:50:23.789Z,31.52
2019-01-21T12:52:59.920Z,31.07
2019-01-21T12:55:39.760Z,28.80
2019-01-21T12:58:19.752Z,30.25
2019-01-21T13:00:59.801Z,30.92
2019-01-21T13:03:39.849Z,28.07
2019-01-21T13:06:19.823Z,26.48
2019-01-21T13:08:59.598Z,29.20
2019-01-21T13:11:39.654Z,28.77
2019-01-21T13:14:19.813Z,27.58
2019-01-21T13:17:00.000Z,26.75
2019-01-21T13:19:40.051Z,29.45
2019-01-21T13:22:20.216Z,25.80
2019-01-21T13:25:00.237Z,27.90
2019-01-21T13:27:40.330Z,28.32
2019-01-21T13:30:20.180Z,31.37
2019-01-21T13:33:00.192Z,31.00
2019-01-21T13:35:40.196Z,27.42
2019-01-21T13:38:20.188Z,29.12
2019-01-21T13:41:00.159Z,28.60
2019-01-21T13:43:40.297Z,30.25
2019-01-21T13:46:20.359Z,28.90
2019-01-21T13:49:00.649Z,30.80
2019-01-21T13:51:40.662Z,25.83
2019-01-21T13:54:20.533Z,32.90
2019-01-21T13:57:00.632Z,30.77
2019-01-21T13:59:40.564Z,28.20
2019-01-21T14:02:20.742Z,31.35
2019-01-21T14:05:00.747Z,34.47
2019-01-21T14:07:40.770Z,30.00
2019-01-21T14:10:21.020Z,26.63
2019-01-21T14:13:01.177Z,24.35
2019-01-21T14:15:41.070Z,26.80
2019-01-21T14:18:21.138Z,26.23
2019-01-21T14:21:01.119Z,26.40
2019-01-21T14:23:41.324Z,27.83
2019-01-21T14:26:21.298Z,25.93
2019-01-21T14:29:01.258Z,30.35
2019-01-21T14:31:41.470Z,30.70
2019-01-21T14:34:21.825Z,25.15
2019-01-21T14:37:01.697Z,25.10
2019-01-21T14:39:41.890Z,24.80
2019-01-21T14:42:21.837Z,30.27
2019-01-21T14:45:01.869Z,30.70
2019-01-21T14:47:41.929Z,36.40
2019-01-21T14:50:22.361Z,37.58
2019-01-21T14:53:02.170Z,40.38
2019-01-21T14:55:42.262Z,34.50
2019-01-21T14:58:23.132Z,26.23
2019-01-21T15:01:03.209Z,23.80
2019-01-21T15:03:43.271Z,26.02
2019-01-21T15:06:23.322Z,23.65
2019-01-21T15:09:03.666Z,25.10
2019-01-21T15:11:43.359Z,23.10
2019-01-21T15:14:23.190Z,24.05
2019-01-21T15:17:03.291Z,25.15
2019-01-21T15:19:43.577Z,26.65
2019-01-21T15:22:23.448Z,25.85
2019-01-21T15:25:03.489Z,28.85
2019-01-21T15:27:43.588Z,24.55
2019-01-21T15:30:23.543Z,30.27
2019-01-21T15:33:03.574Z,22.67
2019-01-21T15:35:43.534Z,26.20
2019-01-21T15:38:23.636Z,23.80
2019-01-21T15:41:03.641Z,29.40
2019-01-21T15:43:43.648Z,29.18
2019-01-21T15:46:23.773Z,30.10
2019-01-21T15:49:03.670Z,41.55
2019-01-21T15:51:43.701Z,63.52
2019-01-21T15:54:23.721Z,40.35
2019-01-21T15:57:03.828Z,41.68
2019-01-21T15:59:43.764Z,29.42
2019-01-21T16:02:23.637Z,31.37
2019-01-21T16:05:03.596Z,28.23
2019-01-21T16:07:43.789Z,31.52
2019-01-21T16:10:23.804Z,29.65
2019-01-21T16:13:03.888Z,27.07
2019-01-21T16:15:43.726Z,32.95
2019-01-21T16:18:23.642Z,27.60
2019-01-21T16:21:03.559Z,30.82
2019-01-21T16:23:43.801Z,26.90
2019-01-21T16:26:23.690Z,29.75
2019-01-21T16:29:03.594Z,29.72
2019-01-21T16:31:43.600Z,29.20
2019-01-21T16:34:23.524Z,27.37
2019-01-21T16:37:03.505Z,30.40
2019-01-21T16:39:43.587Z,33.95
2019-01-21T16:42:23.809Z,30.12
2019-01-21T16:45:03.809Z,25.48
2019-01-21T16:47:43.671Z,32.05
2019-01-21T16:50:23.717Z,27.48
2019-01-21T16:53:03.628Z,25.15
2019-01-21T16:55:43.776Z,27.65
2019-01-21T16:58:23.690Z,26.17
2019-01-21T17:01:03.704Z,27.60
2019-01-21T17:03:43.530Z,31.10
2019-01-21T17:06:23.644Z,36.45
2019-01-21T17:09:03.781Z,33.67
2019-01-21T17:11:43.852Z,33.78
2019-01-21T17:14:23.798Z,40.75
2019-01-21T17:17:03.631Z,38.48
2019-01-21T17:19:43.431Z,26.90
2019-01-21T17:22:23.642Z,31.90
2019-01-21T17:25:03.663Z,30.35
2019-01-21T17:27:43.542Z,34.55
2019-01-21T17:30:23.448Z,26.25
2019-01-21T17:33:03.610Z,27.82
2019-01-21T17:35:43.741Z,28.05
2019-01-21T17:38:23.890Z,28.12
2019-01-21T17:41:03.984Z,32.60
2019-01-21T17:43:44.030Z,32.78
2019-01-21T17:46:24.082Z,37.48
2019-01-21T17:49:03.935Z,40.45
2019-01-21T17:51:44.194Z,39.73
2019-01-21T17:54:24.264Z,33.02
2019-01-21T17:57:04.064Z,36.88
2019-01-21T17:59:44.220Z,33.85
2019-01-21T18:02:24.313Z,43.78
2019-01-21T18:05:04.338Z,35.78
2019-01-21T18:07:44.332Z,34.98
2019-01-21T18:10:24.347Z,31.48
2019-01-21T18:13:04.301Z,31.42
2019-01-21T18:15:44.594Z,34.78
2019-01-21T18:18:24.564Z,34.83
2019-01-21T18:21:04.327Z,36.80
2019-01-21T18:23:44.394Z,35.55
2019-01-21T18:26:24.305Z,33.73
2019-01-21T18:29:04.430Z,37.70
2019-01-21T18:31:44.420Z,34.90
2019-01-21T18:34:24.406Z,34.83
2019-01-21T18:37:04.401Z,40.35
2019-01-21T18:39:44.582Z,34.83
2019-01-21T18:42:24.633Z,39.03
2019-01-21T18:45:04.700Z,34.30
2019-01-21T18:47:44.665Z,32.83
2019-01-21T18:50:24.620Z,33.85
2019-01-21T18:53:04.627Z,33.42
2019-01-21T18:55:44.712Z,32.85
2019-01-21T18:58:24.605Z,31.27
2019-01-21T19:01:04.865Z,41.77
2019-01-21T19:03:45.010Z,39.33
2019-01-21T19:06:24.957Z,35.03
2019-01-21T19:09:04.866Z,30.27
2019-01-21T19:11:45.030Z,35.58
2019-01-21T19:14:24.983Z,32.38
2019-01-21T19:17:05.301Z,35.10
2019-01-21T19:19:45.177Z,32.73
2019-01-21T19:22:25.160Z,34.53
2019-01-21T19:25:05.272Z,32.75
2019-01-21T19:27:45.369Z,33.10
2019-01-21T19:30:25.555Z,36.23
2019-01-21T19:33:05.580Z,31.77
2019-01-21T19:35:45.621Z,34.13
2019-01-21T19:38:25.670Z,31.42
2019-01-21T19:41:05.561Z,33.70
2019-01-21T19:43:45.533Z,29.90
2019-01-21T19:46:25.699Z,31.23
2019-01-21T19:49:05.774Z,27.25
2019-01-21T19:51:45.801Z,32.42
2019-01-21T19:54:25.645Z,31.02
2019-01-21T19:57:05.649Z,32.15
2019-01-21T19:59:45.639Z,25.92
2019-01-21T20:02:25.778Z,30.45
2019-01-21T20:05:05.905Z,29.27
2019-01-21T20:07:45.890Z,32.13
2019-01-21T20:10:25.986Z,28.70
2019-01-21T20:13:06.037Z,25.65
2019-01-21T20:15:46.248Z,27.67
2019-01-21T20:18:26.257Z,27.42
2019-01-21T20:21:06.071Z,25.95
2019-01-21T20:23:47.171Z,27.45
2019-01-21T20:26:27.146Z,25.72
2019-01-21T20:29:07.209Z,25.10
2019-01-21T20:31:47.346Z,27.13
2019-01-21T20:34:27.332Z,27.42
2019-01-21T20:37:07.289Z,26.50
2019-01-21T20:39:47.348Z,25.48
2019-01-21T20:42:27.302Z,28.00
2019-01-21T20:45:07.444Z,28.95
2019-01-21T20:47:47.568Z,27.35
2019-01-21T20:50:27.751Z,25.48
2019-01-21T20:53:07.670Z,27.58
2019-01-21T20:55:47.572Z,29.15
2019-01-21T20:58:27.521Z,28.83
2019-01-21T21:01:08.057Z,31.65
2019-01-21T21:03:47.925Z,29.23
2019-01-21T21:06:28.273Z,33.35
2019-01-21T21:09:08.513Z,29.85
2019-01-21T21:11:48.689Z,30.65
2019-01-21T21:14:28.543Z,31.30
2019-01-21T21:17:08.549Z,25.23
2019-01-21T21:19:48.660Z,31.05
2019-01-21T21:22:28.531Z,33.33
2019-01-21T21:25:08.695Z,34.30
2019-01-21T21:27:48.817Z,29.50
2019-01-21T21:30:28.984Z,33.60
2019-01-21T21:33:08.961Z,30.48
2019-01-21T21:35:49.112Z,25.80
2019-01-21T21:38:28.977Z,28.30
2019-01-21T21:41:09.064Z,31.02
2019-01-21T21:43:48.995Z,28.87
2019-01-21T21:46:29.062Z,27.55
2019-01-21T21:49:09.061Z,31.30
2019-01-21T21:51:49.362Z,29.63
2019-01-21T21:54:29.253Z,26.35
2019-01-21T21:57:09.218Z,26.55
2019-01-21T21:59:49.178Z,34.27
2019-01-21T22:02:29.280Z,27.50
2019-01-21T22:05:09.342Z,25.88
2019-01-21T22:07:49.321Z,27.32
2019-01-21T22:10:29.344Z,28.32
2019-01-21T22:13:09.440Z,27.35
2019-01-21T22:15:49.385Z,26.52
2019-01-21T22:18:29.434Z,28.00
2019-01-21T22:21:09.448Z,32.03
2019-01-21T22:23:49.727Z,27.90
2019-01-21T22:26:29.601Z,29.23
2019-01-21T22:29:09.892Z,31.27
2019-01-21T22:31:49.885Z,27.77
2019-01-21T22:34:29.959Z,29.55
2019-01-21T22:37:10.064Z,28.60
2019-01-21T22:39:49.998Z,30.40
2019-01-21T22:42:30.249Z,30.32
2019-01-21T22:45:10.391Z,30.88
2019-01-21T22:47:50.823Z,32.13
2019-01-21T22:50:30.561Z,32.42
2019-01-21T22:53:10.441Z,34.65
2019-01-21T22:55:50.620Z,27.98
2019-01-21T22:58:30.621Z,33.98
2019-01-21T23:01:10.722Z,31.27
2019-01-21T23:03:50.808Z,32.50
2019-01-21T23:06:30.767Z,34.85
2019-01-21T23:09:11.072Z,41.05
2019-01-21T23:11:51.151Z,30.77
2019-01-21T23:14:31.342Z,31.37
2019-01-21T23:17:11.566Z,33.28
2019-01-21T23:19:51.620Z,36.08
2019-01-21T23:22:31.566Z,30.32
2019-01-21T23:25:11.572Z,31.65
2019-01-21T23:27:52.597Z,33.05
2019-01-21T23:30:32.894Z,37.13
2019-01-21T23:33:12.885Z,38.80
2019-01-21T23:35:52.884Z,31.27
2019-01-21T23:38:32.953Z,37.88
2019-01-21T23:41:12.933Z,29.48
2019-01-21T23:43:53.058Z,38.15
2019-01-21T23:46:33.201Z,31.33
2019-01-21T23:49:13.308Z,32.88
2019-01-21T23:51:53.337Z,35.30
2019-01-21T23:54:33.553Z,32.45
2019-01-21T23:57:13.623Z,28.10
2019-01-21T23:59:53.874Z,26.10
